Time,TemperatureF,DewpointF,PressureIn,WindDirection,WindDirectionDegrees,WindSpeedMPH,WindSpeedGustMPH,Humidity,HourlyPrecipIn,Conditions,Clouds,dailyrainin,SoftwareType,DateUTC
2013-08-03 00:10:00,66.3,65.0,30.04,SW,219,0.0,1.0,95,0.00,,,0.00,weatherlink.com 1.10,2013-08-03 04:10:00,
2013-08-03 00:25:00,65.6,64.0,30.04,SW,225,0.0,0.0,95,0.00,,,0.00,weatherlink.com 1.10,2013-08-03 04:25:00,
2013-08-03 00:40:00,65.3,64.0,30.03,SW,225,0.0,0.0,96,0.00,,,0.00,weatherlink.com 1.10,2013-08-03 04:40:00,
2013-08-03 00:55:00,65.0,64.0,30.04,South,183,0.0,1.0,96,0.00,,,0.00,weatherlink.com 1.10,2013-08-03 04:55:00,
2013-08-03 01:10:00,65.1,64.0,30.03,SSW,211,0.0,0.0,96,0.00,,,0.00,weatherlink.com 1.10,2013-08-03 05:10:00,
2013-08-03 01:25:00,64.8,64.0,30.03,SSW,211,0.0,0.0,96,0.00,,,0.00,weatherlink.com 1.10,2013-08-03 05:25:00,
2013-08-03 01:40:00,64.8,64.0,30.03,NW,304,0.0,1.0,96,0.00,,,0.00,weatherlink.com 1.10,2013-08-03 05:40:00,
2013-08-03 01:55:00,64.3,63.0,30.03,SW,214,0.0,1.0,96,0.00,,,0.00,weatherlink.com 1.10,2013-08-03 05:55:00,
2013-08-03 02:10:00,64.1,63.0,30.03,SSW,193,0.0,1.0,96,0.00,,,0.00,weatherlink.com 1.10,2013-08-03 06:10:00,
2013-08-03 02:25:00,63.9,63.0,30.03,SSW,193,0.0,0.0,97,0.00,,,0.00,weatherlink.com 1.10,2013-08-03 06:25:00,
2013-08-03 02:40:00,63.4,62.0,30.03,SSW,193,0.0,0.0,96,0.00,,,0.00,weatherlink.com 1.10,2013-08-03 06:40:00,
2013-08-03 02:55:00,63.5,63.0,30.02,NW,319,0.0,0.0,97,0.00,,,0.00,weatherlink.com 1.10,2013-08-03 06:55:00,
2013-08-03 03:10:00,63.7,63.0,30.02,NE,40,0.0,1.0,97,0.00,,,0.00,weatherlink.com 1.10,2013-08-03 07:10:00,
2013-08-03 03:25:00,63.9,63.0,30.02,NNE,31,0.0,1.0,97,0.00,,,0.00,weatherlink.com 1.10,2013-08-03 07:25:00,
2013-08-03 03:40:00,63.8,63.0,30.02,NE,40,0.0,1.0,97,0.00,,,0.00,weatherlink.com 1.10,2013-08-03 07:40:00,
2013-08-03 03:55:00,64.1,63.0,30.02,NW,313,0.0,2.0,97,0.00,,,0.00,weatherlink.com 1.10,2013-08-03 07:55:00,
2013-08-03 04:10:00,63.5,63.0,30.02,WSW,243,0.0,2.0,97,0.00,,,0.00,weatherlink.com 1.10,2013-08-03 08:10:00,
2013-08-03 04:25:00,63.4,63.0,30.02,NW,311,0.0,1.0,97,0.00,,,0.00,weatherlink.com 1.10,2013-08-03 08:25:00,
2013-08-03 04:40:00,63.8,63.0,30.02,NNW,339,0.0,2.0,98,0.00,,,0.00,weatherlink.com 1.10,2013-08-03 08:40:00,
2013-08-03 04:55:00,63.5,63.0,30.02,WNW,288,0.0,4.0,97,0.00,,,0.00,weatherlink.com 1.10,2013-08-03 08:55:00,
2013-08-03 05:10:00,63.4,63.0,30.02,WNW,282,0.0,2.0,97,0.00,,,0.00,weatherlink.com 1.10,2013-08-03 09:10:00,
2013-08-03 05:40:00,63.2,62.0,30.02,West,260,0.0,1.0,97,0.00,,,0.00,weatherlink.com 1.10,2013-08-03 09:40:00,
2013-08-03 05:55:00,63.2,63.0,30.02,NW,316,2.0,3.0,98,0.00,,,0.00,weatherlink.com 1.10,2013-08-03 09:55:00,
2013-08-03 06:10:00,63.4,63.0,30.03,NNW,347,3.0,4.0,98,0.00,,,0.00,weatherlink.com 1.10,2013-08-03 10:10:00,
2013-08-03 06:25:00,63.7,63.0,30.03,NNE,15,3.0,6.0,98,0.00,,,0.00,weatherlink.com 1.10,2013-08-03 10:25:00,
2013-08-03 06:40:00,63.7,63.0,30.03,North,10,3.0,4.0,98,0.00,,,0.00,weatherlink.com 1.10,2013-08-03 10:40:00,
2013-08-03 06:55:00,63.7,63.0,30.02,NNW,343,5.0,6.0,98,0.00,,,0.00,weatherlink.com 1.10,2013-08-03 10:55:00,
2013-08-03 07:10:00,63.8,63.0,30.02,NW,321,3.0,6.0,98,0.00,,,0.00,weatherlink.com 1.10,2013-08-03 11:10:00,
2013-08-03 07:25:00,63.5,63.0,30.03,NNW,347,5.0,6.0,97,0.00,,,0.00,weatherlink.com 1.10,2013-08-03 11:25:00,
2013-08-03 07:40:00,63.5,63.0,30.03,NNW,338,3.0,6.0,97,0.00,,,0.00,weatherlink.com 1.10,2013-08-03 11:40:00,
2013-08-03 07:55:00,63.8,63.0,30.02,NNE,20,2.0,5.0,98,0.00,,,0.00,weatherlink.com 1.10,2013-08-03 11:55:00,
2013-08-03 08:10:00,64.1,63.0,30.03,NNW,345,0.0,3.0,97,0.00,,,0.00,weatherlink.com 1.10,2013-08-03 12:10:00,
2013-08-03 08:25:00,64.5,64.0,30.03,NNE,19,3.0,4.0,97,0.00,,,0.00,weatherlink.com 1.10,2013-08-03 12:25:00,
2013-08-03 08:40:00,65.0,64.0,30.03,North,353,4.0,4.0,96,0.00,,,0.00,weatherlink.com 1.10,2013-08-03 12:40:00,
2013-08-03 08:55:00,65.1,64.0,30.04,NNW,343,3.0,5.0,95,0.00,,,0.00,weatherlink.com 1.10,2013-08-03 12:55:00,
2013-08-03 09:10:00,65.8,64.0,30.03,NNE,21,1.0,6.0,94,0.00,,,0.00,weatherlink.com 1.10,2013-08-03 13:10:00,
2013-08-03 09:25:00,66.9,66.0,30.03,NNE,31,1.0,3.0,95,0.00,,,0.00,weatherlink.com 1.10,2013-08-03 13:25:00,
2013-08-03 09:41:00,68.3,66.0,30.03,NNE,20,5.0,6.0,92,0.00,,,0.00,weatherlink.com 1.10,2013-08-03 13:41:00,
2013-08-03 09:55:00,69.4,67.0,30.03,NNE,20,3.0,6.0,91,0.00,,,0.00,weatherlink.com 1.10,2013-08-03 13:55:00,
2013-08-03 10:11:00,71.7,68.0,30.03,NE,37,2.0,4.0,87,0.00,,,0.00,weatherlink.com 1.10,2013-08-03 14:11:00,
2013-08-03 10:26:00,74.2,69.0,30.03,NNW,348,3.0,4.0,83,0.00,,,0.00,weatherlink.com 1.10,2013-08-03 14:26:00,
2013-08-03 10:41:00,75.1,69.0,30.02,NNW,328,2.0,5.0,80,0.00,,,0.00,weatherlink.com 1.10,2013-08-03 14:41:00,
2013-08-03 10:56:00,76.7,67.0,30.02,NNW,335,5.0,8.0,73,0.00,,,0.00,weatherlink.com 1.10,2013-08-03 14:56:00,
2013-08-03 11:11:00,77.4,67.0,30.02,NNW,342,5.0,10.0,71,0.00,,,0.00,weatherlink.com 1.10,2013-08-03 15:11:00,
2013-08-03 11:26:00,78.0,67.0,30.02,North,8,5.0,7.0,69,0.00,,,0.00,weatherlink.com 1.10,2013-08-03 15:26:00,
2013-08-03 11:56:00,79.1,67.0,30.02,NNE,20,0.0,8.0,67,0.00,,,0.00,weatherlink.com 1.10,2013-08-03 15:56:00,
2013-08-03 12:26:00,80.1,66.0,30.01,NNW,339,5.0,7.0,63,0.00,,,0.00,weatherlink.com 1.10,2013-08-03 16:26:00,
2013-08-03 12:56:00,79.9,66.0,30.02,NE,46,7.0,10.0,63,0.00,,,0.00,weatherlink.com 1.10,2013-08-03 16:56:00,
2013-08-03 13:11:00,81.3,67.0,30.01,NW,326,2.0,8.0,62,0.00,,,0.00,weatherlink.com 1.10,2013-08-03 17:11:00,
2013-08-03 13:26:00,81.0,67.0,30.01,North,353,3.0,8.0,62,0.00,,,0.00,weatherlink.com 1.10,2013-08-03 17:26:00,
2013-08-03 13:41:00,80.5,66.0,30.01,NNW,342,8.0,8.0,61,0.00,,,0.00,weatherlink.com 1.10,2013-08-03 17:41:00,
2013-08-03 13:56:00,81.0,66.0,30.01,NNW,341,3.0,8.0,60,0.00,,,0.00,weatherlink.com 1.10,2013-08-03 17:56:00,
2013-08-03 14:11:00,81.6,67.0,30.01,NNE,19,10.0,10.0,62,0.00,,,0.00,weatherlink.com 1.10,2013-08-03 18:11:00,
2013-08-03 14:41:00,82.0,67.0,30.00,NW,323,3.0,6.0,61,0.00,,,0.00,weatherlink.com 1.10,2013-08-03 18:41:00,
2013-08-03 14:56:00,81.2,66.0,29.99,NNE,20,6.0,12.0,61,0.00,,,0.00,weatherlink.com 1.10,2013-08-03 18:56:00,
2013-08-03 15:11:00,81.4,67.0,29.99,North,6,7.0,13.0,61,0.00,,,0.00,weatherlink.com 1.10,2013-08-03 19:11:00,
2013-08-03 15:26:00,81.7,67.0,29.99,NNE,15,4.0,9.0,61,0.00,,,0.00,weatherlink.com 1.10,2013-08-03 19:26:00,
2013-08-03 15:41:00,82.1,67.0,29.99,NNE,19,4.0,9.0,60,0.00,,,0.00,weatherlink.com 1.10,2013-08-03 19:41:00,
2013-08-03 15:56:00,81.8,66.0,29.99,NNE,23,6.0,12.0,59,0.00,,,0.00,weatherlink.com 1.10,2013-08-03 19:56:00,
2013-08-03 16:11:00,81.2,66.0,29.99,NNE,23,9.0,12.0,61,0.00,,,0.00,weatherlink.com 1.10,2013-08-03 20:11:00,
2013-08-03 16:26:00,80.5,68.0,29.99,NE,40,7.0,8.0,66,0.00,,,0.00,weatherlink.com 1.10,2013-08-03 20:26:00,
2013-08-03 16:41:00,80.1,68.0,29.98,North,355,10.0,15.0,66,0.00,,,0.00,weatherlink.com 1.10,2013-08-03 20:41:00,
2013-08-03 16:56:00,79.4,65.0,29.98,NNW,338,7.0,14.0,61,0.00,,,0.00,weatherlink.com 1.10,2013-08-03 20:56:00,
2013-08-03 17:11:00,79.2,68.0,29.98,NNW,331,5.0,10.0,68,0.00,,,0.00,weatherlink.com 1.10,2013-08-03 21:11:00,
2013-08-03 17:26:00,78.5,68.0,29.98,NNE,27,4.0,9.0,70,0.00,,,0.00,weatherlink.com 1.10,2013-08-03 21:26:00,
2013-08-03 17:56:00,77.8,69.0,29.98,NNE,19,8.0,11.0,73,0.00,,,0.00,weatherlink.com 1.10,2013-08-03 21:56:00,
2013-08-03 18:12:00,77.7,68.0,29.98,NNE,16,6.0,13.0,73,0.00,,,0.00,weatherlink.com 1.10,2013-08-03 22:12:00,
2013-08-03 18:27:00,77.6,68.0,29.97,North,4,2.0,11.0,72,0.00,,,0.00,weatherlink.com 1.10,2013-08-03 22:27:00,
2013-08-03 18:42:00,77.6,69.0,29.97,North,353,4.0,8.0,74,0.00,,,0.00,weatherlink.com 1.10,2013-08-03 22:42:00,
2013-08-03 18:57:00,77.1,68.0,29.96,North,355,5.0,10.0,74,0.00,,,0.00,weatherlink.com 1.10,2013-08-03 22:57:00,
2013-08-03 19:12:00,77.2,69.0,29.97,NNW,341,4.0,5.0,75,0.00,,,0.00,weatherlink.com 1.10,2013-08-03 23:12:00,
2013-08-03 19:27:00,77.0,69.0,29.97,NNW,340,3.0,5.0,77,0.00,,,0.00,weatherlink.com 1.10,2013-08-03 23:27:00,
2013-08-03 19:42:00,76.1,70.0,29.97,NNW,335,2.0,4.0,80,0.00,,,0.00,weatherlink.com 1.10,2013-08-03 23:42:00,
2013-08-03 19:57:00,75.5,69.0,29.97,North,10,1.0,4.0,79,0.00,,,0.00,weatherlink.com 1.10,2013-08-03 23:57:00,
2013-08-03 20:12:00,75.4,69.0,29.98,NW,321,0.0,3.0,81,0.00,,,0.00,weatherlink.com 1.10,2013-08-04 00:12:00,
2013-08-03 20:27:00,73.3,69.0,29.98,SSW,205,0.0,1.0,85,0.00,,,0.00,weatherlink.com 1.10,2013-08-04 00:27:00,
2013-08-03 20:41:00,71.9,68.0,29.98,SW,228,0.0,0.0,88,0.00,,,0.00,weatherlink.com 1.10,2013-08-04 00:41:00,
2013-08-03 21:12:00,69.9,68.0,29.99,ENE,61,0.0,1.0,92,0.00,,,0.00,weatherlink.com 1.10,2013-08-04 01:12:00,
2013-08-03 21:27:00,69.6,67.0,30.00,NNE,30,1.0,2.0,92,0.00,,,0.00,weatherlink.com 1.10,2013-08-04 01:27:00,
2013-08-03 21:42:00,69.2,67.0,30.00,South,184,0.0,3.0,93,0.00,,,0.00,weatherlink.com 1.10,2013-08-04 01:42:00,
2013-08-03 21:57:00,69.5,68.0,30.00,NW,318,0.0,2.0,94,0.00,,,0.00,weatherlink.com 1.10,2013-08-04 01:57:00,
2013-08-03 22:12:00,69.5,68.0,30.01,NW,317,0.0,2.0,93,0.00,,,0.00,weatherlink.com 1.10,2013-08-04 02:12:00,
2013-08-03 22:42:00,68.6,67.0,30.02,NNE,14,0.0,1.0,93,0.00,,,0.00,weatherlink.com 1.10,2013-08-04 02:42:00,
2013-08-03 22:57:00,68.5,67.0,30.01,SW,226,0.0,1.0,94,0.00,,,0.00,weatherlink.com 1.10,2013-08-04 02:57:00,
2013-08-03 23:12:00,68.7,67.0,30.01,North,6,1.0,3.0,94,0.00,,,0.00,weatherlink.com 1.10,2013-08-04 03:12:00,
2013-08-03 23:27:00,67.8,66.0,30.01,North,8,0.0,2.0,95,0.00,,,0.00,weatherlink.com 1.10,2013-08-04 03:27:00,
2013-08-03 23:41:00,67.5,66.0,30.00,West,276,0.0,1.0,95,0.00,,,0.00,weatherlink.com 1.10,2013-08-04 03:41:00,
2013-08-03 23:57:00,67.3,66.0,30.00,SW,226,1.0,1.0,95,0.00,,,0.00,weatherlink.com 1.10,2013-08-04 03:57:00,